Thunder radar more information blitzortung!


Löydät sääaseman tiedot myös:

European Weather Network

Finland Weather Exchange

Weather Underground

AWEKAS



Weather Underground säähistoriasivu

Päivittäin yhteenveto Heinäkuu 18, 2017 Yksiköt:  Englantilaiset    Metriset   Molemmat
« Edellinen Päivä
Seuraava Päivä »
Päivittäin Viikoittain Kuukausittain Vuosittain Mukautettu
  Korkea: Matala: Keskiarvo:
Lämpötila: TemperatureC °F 9.7 °F 14 °F
Kastepiste: DewpointC °F 7.4 °F 9.2 °F
Kosteus: Humidity % 51 % 73 %
Tuulen nopeus: WindSpeedKMH mph 0.0 mph 2.1 mph
Tuulenpuuska: WindSpeedGustKMH mph - -
Tuuli:- - SW
Ilmanpaine: PressurehPa in 1001.6 in -
Sade: 0.5 in    
Historical Graphs
 
 
Taulukkotiedot Heinäkuu 18, 2017
Aika Lämpötila Kastepiste Ilmanpaine Tuuli Tuulen nopeus Tuulenpuuska Kosteus Sademäärä (tunneittain)
TemperatureC °F DewpointC °F PressurehPa in Calm     Humidity % HourlyPrecipMM in
00:00 11.7 °F 9.6 °F 1001.6 in SW 1.6 mph 8.0 mph 87 % 0.0 in
00:15 11.4 °F 9.5 °F 1001.6 in SSW 1.6 mph 9.7 mph 88 % 0.0 in
00:30 11.2 °F 9.4 °F 1001.6 in SW 1.6 mph 8.0 mph 88 % 0.0 in
00:45 11.2 °F 9.5 °F 1001.6 in SSW 4.8 mph 12.9 mph 89 % 0.0 in
01:00 11.2 °F 9.5 °F 1001.6 in SW 4.8 mph 11.3 mph 89 % 0.0 in
01:15 11.3 °F 9.5 °F 1001.6 in SSW 6.4 mph 14.5 mph 89 % 0.0 in
01:30 11.2 °F 9.6 °F 1001.6 in SSW 4.8 mph 16.1 mph 90 % 0.0 in
01:45 11.1 °F 9.6 °F 1001.9 in SSW 1.6 mph 8.0 mph 91 % 0.0 in
02:00 11.1 °F 9.8 °F 1001.9 in SW 3.2 mph 9.7 mph 92 % 0.0 in
02:15 11.2 °F 9.9 °F 1001.9 in SSW 4.8 mph 14.5 mph 92 % 0.0 in
02:30 11.3 °F 9.9 °F 1001.6 in SSW 4.8 mph 12.9 mph 91 % 0.0 in
02:45 11.7 °F 10.3 °F 1001.9 in SW 4.8 mph 12.9 mph 91 % 0.0 in
03:00 11.4 °F 10.0 °F 1001.9 in SSW 6.4 mph 17.7 mph 91 % 0.0 in
03:15 11.1 °F 9.8 °F 1001.9 in SSW 4.8 mph 12.9 mph 92 % 0.0 in
03:30 10.8 °F 9.5 °F 1001.9 in SSW 3.2 mph 9.7 mph 92 % 0.0 in
03:45 10.5 °F 9.4 °F 1001.9 in SSW 4.8 mph 12.9 mph 93 % 0.0 in
04:00 10.3 °F 9.2 °F 1001.9 in SSW 4.8 mph 12.9 mph 93 % 0.0 in
04:15 10.2 °F 9.2 °F 1002.3 in SSW 3.2 mph 11.3 mph 94 % 0.0 in
04:30 10.0 °F 9.1 °F 1002.3 in SSW 1.6 mph 8.0 mph 94 % 0.0 in
04:45 9.9 °F 9.0 °F 1002.3 in Calm     94 % 0.0 in
05:00 9.8 °F 8.9 °F 1002.3 in Calm   6.4 mph 94 % 0.0 in
05:15 9.8 °F 8.9 °F 1002.6 in Calm   3.2 mph 94 % 0.0 in
05:30 9.7 °F 8.8 °F 1002.6 in SSW 1.6 mph 6.4 mph 94 % 0.0 in
05:45 9.7 °F 8.8 °F 1002.6 in Calm   4.8 mph 94 % 0.0 in
06:00 9.9 °F 9.2 °F 1002.6 in Calm   9.7 mph 95 % 0.0 in
06:15 10.3 °F 9.4 °F 1002.6 in Calm   4.8 mph 94 % 0.0 in
06:30 10.7 °F 9.6 °F 1002.6 in Calm   6.4 mph 93 % 0.0 in
06:45 10.8 °F 9.6 °F 1002.9 in SW 1.6 mph 6.4 mph 92 % 0.0 in
07:00 11.2 °F 9.8 °F 1002.9 in SSW 1.6 mph 9.7 mph 91 % 0.0 in
07:15 11.7 °F 10.0 °F 1003.3 in South 1.6 mph 8.0 mph 89 % 0.0 in
07:30 12.2 °F 10.2 °F 1003.3 in SSW 1.6 mph 8.0 mph 88 % 0.0 in
07:45 12.6 °F 10.3 °F 1003.3 in West 3.2 mph 11.3 mph 86 % 0.0 in
08:00 12.9 °F 10.3 °F 1003.3 in WSW 1.6 mph 11.3 mph 84 % 0.0 in
08:15 13.3 °F 10.5 °F 1003.6 in WSW 1.6 mph 12.9 mph 83 % 0.0 in
08:30 13.7 °F 10.5 °F 1003.6 in SW 3.2 mph 14.5 mph 81 % 0.0 in
08:45 13.9 °F 10.5 °F 1003.6 in SSW 3.2 mph 9.7 mph 80 % 0.0 in
09:00 14.2 °F 10.6 °F 1003.6 in SW 4.8 mph 14.5 mph 79 % 0.0 in
09:15 14.7 °F 10.3 °F 1003.9 in West 4.8 mph 17.7 mph 75 % 0.0 in
09:30 14.5 °F 10.3 °F 1003.9 in SW 6.4 mph 16.1 mph 76 % 0.0 in
09:45 14.9 °F 10.7 °F 1003.9 in SW 6.4 mph 16.1 mph 76 % 0.0 in
10:00 15.3 °F 10.5 °F 1003.9 in SW 4.8 mph 14.5 mph 73 % 0.0 in
10:15 15.4 °F 10.8 °F 1004.3 in SW 4.8 mph 11.3 mph 74 % 0.0 in
10:30 15.4 °F 10.4 °F 1004.3 in SW 6.4 mph 17.7 mph 72 % 0.0 in
10:45 15.3 °F 10.3 °F 1004.6 in WSW 4.8 mph 14.5 mph 72 % 0.0 in
11:00 15.4 °F 10.6 °F 1004.6 in WSW 4.8 mph 12.9 mph 73 % 0.0 in
11:15 15.7 °F 10.6 °F 1004.6 in SW 3.2 mph 11.3 mph 72 % 0.0 in
11:30 16.0 °F 10.5 °F 1004.6 in SW 4.8 mph 12.9 mph 70 % 0.0 in
11:45 16.2 °F 10.0 °F 1004.6 in SSW 6.4 mph 17.7 mph 67 % 0.0 in
12:00 16.4 °F 10.3 °F 1005.0 in West 3.2 mph 12.9 mph 67 % 0.0 in
12:15 17.0 °F 10.1 °F 1005.0 in SW 3.2 mph 14.5 mph 64 % 0.0 in
12:30 17.2 °F 10.1 °F 1005.0 in WSW 6.4 mph 14.5 mph 63 % 0.0 in
12:45 16.9 °F 10.7 °F 1005.0 in SW 4.8 mph 16.1 mph 67 % 0.0 in
13:00 16.9 °F 9.8 °F 1005.0 in WNW 3.2 mph 16.1 mph 63 % 0.0 in
13:15 17.6 °F 9.2 °F 1005.0 in WSW 6.4 mph 17.7 mph 58 % 0.0 in
13:30 17.0 °F 8.4 °F 1005.0 in West 6.4 mph 20.9 mph 57 % 0.0 in
13:45 17.7 °F 8.6 °F 1005.3 in WSW 8.0 mph 20.9 mph 55 % 0.0 in
14:00 18.2 °F 8.5 °F 1005.3 in SW 4.8 mph 19.3 mph 53 % 0.0 in
14:15 17.8 °F 8.7 °F 1005.3 in Calm     55 % 0.0 in
14:30 18.4 °F 8.4 °F 1005.6 in Calm     52 % 0.0 in
14:45 18.2 °F 8.8 °F 1005.6 in Calm     54 % 0.0 in
15:00 17.8 °F 8.7 °F 1005.6 in Calm     55 % 0.0 in
15:15 17.9 °F 9.2 °F 1005.6 in Calm     57 % 0.0 in
15:30 18.2 °F 9.0 °F 1006.0 in Calm     55 % 0.0 in
15:45 17.3 °F 7.4 °F 1006.0 in Calm     52 % 0.0 in
16:00 17.4 °F 7.7 °F 1006.0 in Calm     53 % 0.0 in
16:15 17.2 °F 7.8 °F 1006.0 in Calm     54 % 0.0 in
16:30 16.7 °F 7.6 °F 1006.0 in Calm     55 % 0.0 in
16:45 17.8 °F 7.8 °F 1006.0 in Calm     52 % 0.0 in
17:00 18.2 °F 7.9 °F 1006.0 in Calm     51 % 0.0 in
17:15 17.6 °F 7.6 °F 1006.3 in Calm     52 % 0.0 in
17:30 17.4 °F 8.3 °F 1006.3 in Calm     55 % 0.0 in
17:45 17.2 °F 7.8 °F 1006.3 in Calm     54 % 0.0 in
18:00 17.7 °F 8.2 °F 1006.3 in Calm     54 % 0.0 in
18:15 16.7 °F 7.8 °F 1006.7 in Calm     56 % 0.0 in
18:30 17.0 °F 7.9 °F 1006.7 in Calm     55 % 0.0 in
18:45 17.1 °F 8.0 °F 1006.3 in Calm     55 % 0.0 in
19:00 16.7 °F 7.8 °F 1006.7 in Calm     56 % 0.0 in
19:15 16.7 °F 8.2 °F 1006.7 in Calm     57 % 0.0 in
19:30 16.6 °F 8.3 °F 1006.7 in Calm     58 % 0.0 in
19:45 16.9 °F 8.4 °F 1007.0 in Calm     57 % 0.0 in
20:00 16.3 °F 8.0 °F 1007.0 in Calm     58 % 0.0 in
20:15 15.7 °F 8.2 °F 1007.3 in Calm     61 % 0.0 in
20:30 15.4 °F 8.6 °F 1007.0 in Calm     64 % 0.0 in
20:45 15.1 °F 8.6 °F 1007.0 in Calm     65 % 0.0 in
21:00 15.0 °F 8.7 °F 1007.3 in Calm     66 % 0.0 in
21:15 14.8 °F 8.9 °F 1007.3 in Calm     68 % 0.0 in
21:30 14.6 °F 9.0 °F 1007.3 in Calm     69 % 0.0 in
21:45 14.4 °F 9.2 °F 1007.3 in Calm     71 % 0.0 in
22:00 14.1 °F 9.5 °F 1007.3 in Calm     74 % 0.0 in
22:15 13.8 °F 9.7 °F 1007.3 in Calm     76 % 0.0 in
22:30 13.3 °F 9.1 °F 1007.7 in Calm   3.2 mph 76 % 0.0 in
22:45 12.8 °F 8.7 °F 1008.7 in WNW 1.6 mph 8.0 mph 76 % 0.0 in
23:00 11.9 °F 9.4 °F 1008.0 in Calm     85 % 0.5 in
23:15 11.1 °F 9.3 °F 1008.7 in Calm   1.6 mph 89 % 0.5 in
23:30 10.8 °F 9.5 °F 1008.7 in Calm     92 % 0.5 in
23:45 10.7 °F 9.6 °F 1008.7 in Calm   3.2 mph 93 % 0.5 in
Esan sääasema
Terveisin Weather Underground - 2.75 mb

Alkuperäinen skripti  Jim McMurry - jmcmurry@mwt.net Sovitettu myös templatelle  Wim van der Kuil - Leuven-Template.eu

Laitteet joita käytämme:

Sääasema
Davis VP2

Sääasemaohjelma
Cumulus

Sääaseman tietokone
Asus EeePC

Palveluntarjoaja
Suncomet

Davis VP2

Cumulus

Asus EeePC

Suncomet